Forside
METAR-TAF:

METAR-TAF

Lufthavne :

Flying Cloud Airport

Minneapolis / Eden Prairie, Minnesota, USA

Breddekreds: 44-49-56N, længdekreds: 093-28-13W, højde: 287 m

Aktuelle vejr

Denne rapport blev lavet for 40 minutter siden, kl. 23:53 UTC
Vind 10 kt fra nordvest med vindstød på up til 19 kt
Temperatur 18°C
Fugtighed 37%
Tryk 1013 hPa
Sigt: 16.1 km
Nogle få skyer i en højde af 8000 ft

METAR: KFCM 212353Z 31010G19KT 10SM FEW080 18/03 A2992 RMK AO2 SLP132 T01830028 10194 20167 57003

Tid: 19:33 (00:33 UTC)


TAF: fraværende

Vejrobservationer og prognoser fra mere end 4000 lufthavne (METAR og TAF).

De gule og røde prikker repræsenterer de meteorologiske stationer.

Flyt musen over at se navnet på stationen.

Så klik over at se vejr observationer og prognoser.

At skifte det kort: Klik på de grønne knapper med et sort kors for at zoome ind; på den grønne knap med en bindestreg for at zoome ud; eller på de grønne pile for tilstødende kort.


METAR-TAF: